Terminal Aerodrome Forecast
Issued by NWS

Home | Current Version | Previous Version | Text Only | Print | Product List | Glossary On
Versions: 1 2 3 4 5 6 7 8 9 10 11 12 13 14
000
FTUS41 KBTV 302322
TAFMPV
TAF
KMPV 302322Z 3100/3124 VRB03KT P6SM SCT060
      TEMPO 3100/3104 BKN060
     FM310600 00000KT 3SM BR SCT010
     FM310800 00000KT 1/2SM FG OVC001
     FM311300 26007KT P6SM SCT040
     FM311800 29010G18KT P6SM SCT040=

USA.gov is the U.S. government's official web portal to all federal, state and local government web resources and services.